»·PEaware :: AAL2671 KPHX-KSAN

AAL2671 :: KPHX-KSAN

FLIGHT INFORMATION

Flight Status: Arrived
Operator:
American Airlines
More flights by this operator :: More flights under this callsign
Pilot: Timothy L. (25392)
Aircraft: AIRBUS A321
(A321)
More flights by this aircraft type
Origin: KPHX Phoenix Sky Harbor Intl
United States
Destination: KSAN San Diego Intl-Lindbergh
United States
More flights between these airports :: More routes between these airports
Route: FYRBD1 MOHAK J2 HOGGZ LUCKI1
File this flight plan on PilotEdge
Remarks:
Altitude:
(Current/Filed)
30,000ft
Speed:
(Current/Filed)
447kts
Departed: 24-Jul-20 12:45 PM
Arrived: 24-Jul-20 01:34 PM
Distance/Time
Traveled:
264nm/0:48
Distance/Time
To Go:
Arrived

Flight Plot

Page will automatically refresh every two minutes.


Map Options




Map Legend


Flown Route
Filed Route
Departure Airport
Arrival Airport
Navaid (VOR, NDB)
Fix

Horizontal Profiles

Position Reports

Time Latitude Longitude Heading Altitude Ground
Speed
24-Jul-20 12:17 33.436472 -112.002418 88 1140ft 0kts
24-Jul-20 12:17 33.436472 -112.002418 88 1140ft 0kts
24-Jul-20 12:19 33.436472 -112.002418 88 1140ft 0kts
24-Jul-20 12:20 33.436472 -112.002418 88 1140ft 0kts
24-Jul-20 12:20 33.436472 -112.002418 88 1140ft 0kts
24-Jul-20 12:22 33.436472 -112.002418 88 1140ft 0kts
24-Jul-20 12:22 33.436472 -112.002418 88 1140ft 0kts
24-Jul-20 12:23 33.436472 -112.002418 88 1140ft 0kts
24-Jul-20 12:24 33.436472 -112.002418 88 1140ft 0kts
24-Jul-20 12:25 33.436472 -112.002418 88 1140ft 0kts
24-Jul-20 12:26 33.436472 -112.002418 88 1140ft 0kts
24-Jul-20 12:27 33.436472 -112.002418 88 1140ft 0kts
24-Jul-20 12:28 33.436472 -112.002418 88 1140ft 0kts
24-Jul-20 12:29 33.436472 -112.002418 88 1140ft 0kts
24-Jul-20 12:30 33.436471 -112.002468 88 1140ft 2kts
24-Jul-20 12:31 33.436739 -112.002864 172 1140ft 1kts
24-Jul-20 12:32 33.436772 -112.003048 357 1140ft 0kts
24-Jul-20 12:33 33.436705 -112.003040 359 1140ft 0kts
24-Jul-20 12:34 33.437056 -112.003038 1 1140ft 6kts
24-Jul-20 12:35 33.439014 -112.004445 267 1140ft 13kts
24-Jul-20 12:36 33.438996 -112.009815 270 1140ft 16kts
24-Jul-20 12:37 33.439009 -112.015232 270 1140ft 16kts
24-Jul-20 12:38 33.439012 -112.020933 270 1140ft 17kts
24-Jul-20 12:39 33.439029 -112.026833 270 1140ft 17kts
24-Jul-20 12:40 33.439673 -112.029685 0 1140ft 0kts
24-Jul-20 12:41 33.439673 -112.029685 0 1140ft 0kts
24-Jul-20 12:42 33.439673 -112.029685 0 1140ft 0kts
24-Jul-20 12:43 33.440572 -112.029656 14 1140ft 9kts
24-Jul-20 12:44 33.440809 -111.992618 90 2044ft 189kts
24-Jul-20 12:45 33.437567 -111.924587 93 5326ft 223kts
24-Jul-20 12:46 33.413998 -111.853451 146 7099ft 251kts
24-Jul-20 12:47 33.354872 -111.873935 249 9318ft 258kts
24-Jul-20 12:48 33.359102 -111.962440 276 11421ft 289kts
24-Jul-20 12:49 33.335985 -112.061715 233 12663ft 355kts
24-Jul-20 12:50 33.272014 -112.164542 233 14510ft 402kts
24-Jul-20 12:51 33.204588 -112.273846 233 17366ft 416kts
24-Jul-20 12:52 33.134780 -112.386872 233 19960ft 430kts
24-Jul-20 12:53 33.062403 -112.503643 232 22192ft 443kts
24-Jul-20 12:54 32.988039 -112.623210 232 24008ft 453kts
24-Jul-20 12:55 32.944399 -112.761673 258 25528ft 466kts
24-Jul-20 12:56 32.924418 -112.914013 258 27281ft 463kts
24-Jul-20 12:57 32.904128 -113.063814 258 28964ft 456kts
24-Jul-20 12:58 32.883690 -113.209559 258 29933ft 452kts
24-Jul-20 12:59 32.863072 -113.356966 258 29942ft 452kts
24-Jul-20 13:00 32.842419 -113.504527 258 29942ft 452kts
24-Jul-20 13:01 32.821946 -113.649611 259 29942ft 452kts
24-Jul-20 13:02 32.800943 -113.797506 258 29942ft 453kts
24-Jul-20 13:03 32.780256 -113.945466 261 29942ft 453kts
24-Jul-20 13:04 32.775777 -114.094791 271 29940ft 453kts
24-Jul-20 13:05 32.781953 -114.244710 271 29930ft 452kts
24-Jul-20 13:06 32.793363 -114.393052 279 29924ft 453kts
24-Jul-20 13:07 32.828897 -114.537125 286 29923ft 454kts
24-Jul-20 13:08 32.866446 -114.678312 281 29922ft 452kts
24-Jul-20 13:09 32.877249 -114.827299 267 29922ft 448kts
24-Jul-20 13:10 32.873734 -114.975814 267 29922ft 448kts
24-Jul-20 13:11 32.870246 -115.123242 267 29138ft 445kts
24-Jul-20 13:12 32.866597 -115.271080 267 25321ft 463kts
24-Jul-20 13:13 32.853922 -115.418918 261 23915ft 434kts
24-Jul-20 13:14 32.832329 -115.562915 259 22828ft 438kts
24-Jul-20 13:15 32.809138 -115.702882 258 20813ft 429kts
24-Jul-20 13:16 32.786917 -115.839209 260 18933ft 421kts
24-Jul-20 13:17 32.775612 -115.975902 264 16949ft 400kts
24-Jul-20 13:18 32.766760 -116.094386 264 15323ft 339kts
24-Jul-20 13:19 32.758408 -116.203817 263 13844ft 325kts
24-Jul-20 13:20 32.750301 -116.308786 263 12400ft 314kts
24-Jul-20 13:21 32.742367 -116.410791 263 10939ft 307kts
24-Jul-20 13:22 32.734621 -116.508771 262 10055ft 282kts
24-Jul-20 13:23 32.725681 -116.600560 262 8738ft 277kts
24-Jul-20 13:24 32.718123 -116.682127 263 7494ft 285kts
24-Jul-20 13:25 32.711391 -116.769438 263 6049ft 271kts
24-Jul-20 13:26 32.698631 -116.847341 248 5512ft 236kts
24-Jul-20 13:27 32.676254 -116.920374 250 4331ft 233kts
24-Jul-20 13:28 32.684628 -116.988779 285 3469ft 191kts
24-Jul-20 13:29 32.699174 -117.047902 285 2571ft 169kts
24-Jul-20 13:30 32.711097 -117.096660 285 1799ft 153kts
24-Jul-20 13:31 32.722359 -117.143367 284 831ft 142kts
24-Jul-20 13:32 32.733239 -117.188276 284 26ft 117kts
24-Jul-20 13:33 32.734970 -117.199809 285 25ft 13kts
24-Jul-20 13:34 32.733829 -117.202748 185 25ft 10kts
24-Jul-20 13:35 32.732887 -117.201709 92 25ft 0kts
24-Jul-20 13:36 32.732887 -117.201709 92 25ft 0kts

Navigation Log

Ident Type
Flight plan parsing failed, navigation log unavailable